This is the latest recevied weather packets stored in our database for station/object KK7HEZ. If no packets are shown the sender has not sent any weather packets the latest 1 day(s).
| Time | Temp. | Humidity | Pressure | Rain* | Wind** | Luminosity | Snow |
|---|---|---|---|---|---|---|---|
| 1778036661 | 17.22° C | 81% | 1016.2 hPa | 0 mm | 0 m/s | 5 W/m² | - |
| 1778036357 | 17.22° C | 80% | 1015.9 hPa | 0 mm | 0 m/s | 9 W/m² | - |
| 1778036055 | 17.78° C | 78% | 1015.8 hPa | 0 mm | 0 m/s | 12 W/m² | - |
| 1778035751 | 18.33° C | 75% | 1016 hPa | 0 mm | 0 m/s | 15 W/m² | - |
| 1778035448 | 18.33° C | 76% | 1015.6 hPa | 0 mm | 0 m/s | 19 W/m² | - |
| 1778035144 | 18.33° C | 74% | 1015.7 hPa | 0 mm | 0 m/s | 23 W/m² | - |
| 1778034841 | 18.89° C | 75% | 1015.6 hPa | 0 mm | 0 m/s | 26 W/m² | - |
| 1778034538 | 18.89° C | 74% | 1015.6 hPa | 0 mm | 0 m/s | 31 W/m² | - |
| 1778034235 | 19.44° C | 73% | 1015.8 hPa | 0 mm | 0 m/s | 37 W/m² | - |
| 1778033933 | 20° C | 70% | 1015.7 hPa | 0 mm | 0 m/s | 24 W/m² | - |
| 1778033630 | 20° C | 68% | 1015.5 hPa | 0 mm | 0.45 m/s, 195° | 27 W/m² | - |
| 1778033327 | 20° C | 68% | 1015.7 hPa | 0 mm | 0.45 m/s, 168° | 26 W/m² | - |
| 1778033025 | 20.56° C | 67% | 1015.7 hPa | 0 mm | 0.89 m/s, 197° | 73 W/m² | - |
| 1778032722 | 20.56° C | 67% | 1015.5 hPa | 0 mm | 0 m/s | 29 W/m² | - |
| 1778032419 | 20.56° C | 67% | 1015.6 hPa | 0 mm | 0 m/s | 88 W/m² | - |
| 1778032116 | 20.56° C | 67% | 1015.6 hPa | 0 mm | 0 m/s | 32 W/m² | - |
| 1778031813 | 20.56° C | 66% | 1015.5 hPa | 0 mm | 0 m/s | 34 W/m² | - |
| 1778031509 | 21.11° C | 66% | 1015.5 hPa | 0 mm | 0 m/s | 144 W/m² | - |
| 1778031207 | 20° C | 69% | 1015.6 hPa | 0 mm | 0.45 m/s, 148° | 158 W/m² | - |
| 1778030903 | 20° C | 70% | 1015.7 hPa | 0 mm | 0 m/s | 164 W/m² | - |
| 1778030601 | 18.89° C | 75% | 1015.6 hPa | 0 mm | 0 m/s | 172 W/m² | - |
| 1778030298 | 19.44° C | 72% | 1015.9 hPa | 0 mm | 1.34 m/s, 218° | 52 W/m² | - |
| 1778029994 | 18.89° C | 72% | 1015.7 hPa | 0 mm | 0.45 m/s, 188° | 189 W/m² | - |
| 1778029692 | 19.44° C | 71% | 1015.7 hPa | 0 mm | 0 m/s | 202 W/m² | - |
| 1778029389 | 19.44° C | 71% | 1015.7 hPa | 0 mm | 0.45 m/s, 178° | 228 W/m² | - |
* Rain latest hour (hover to see other rain measurements)
** Current wind speed in m/s (hover to see current wind gust speed)